Terminal Aerodrome Forecast
Issued by NWS Cleveland, OH

Home | Current Version | Previous Version | Text Only | Print | Product List | Glossary Off
Versions: 1 2 3 4 5 6 7 8 9 10 11 12 13 14 15 16 17 18 19 20 21 22 23

000
FTUS41 KCLE 241100 CCA
TAFYNG
TAF COR
KYNG 241144Z 2412/2512 13010KT P6SM OVC005
      TEMPO 2413/2416 2SM -DZ BR
     FM241600 16010KT P6SM OVC008
     FM241900 18012G22KT P6SM OVC012
     FM250000 19018G28KT 4SM -SHRA OVC010
     FM250300 20025G40KT P6SM OVC015
     FM251000 24025G35KT 3SM -SHSN OVC018=

USA.gov is the U.S. government's official web portal to all federal, state and local government web resources and services.